Time,TemperatureF,DewpointF,PressureIn,WindDirection,WindDirectionDegrees,WindSpeedMPH,WindSpeedGustMPH,Humidity,HourlyPrecipIn,Conditions,Clouds,dailyrainin,SoftwareType,DateUTC
2013-02-25 00:00:00,32.7,21.9,29.87,NW,315,2.3,3.9,64,0.00,-DZ,,0.00,WeatherDisplay:10.37,2013-02-25 05:00:00,
2013-02-25 00:01:00,32.5,22.1,29.87,West,270,2.3,3.7,65,0.00,-DZ,,0.00,WeatherDisplay:10.37,2013-02-25 05:01:00,
2013-02-25 00:04:00,32.5,22.1,29.87,NNW,338,5.1,5.1,65,0.00,-DZ,,0.00,WeatherDisplay:10.37,2013-02-25 05:04:00,
2013-02-25 00:09:00,32.4,21.9,29.87,NNW,338,5.1,5.1,65,0.00,-DZ,,0.00,WeatherDisplay:10.37,2013-02-25 05:09:00,
2013-02-25 00:14:00,32.5,22.1,29.87,North,0,4.6,4.6,65,0.00,-DZ,,0.00,WeatherDisplay:10.37,2013-02-25 05:14:00,
2013-02-25 00:19:00,32.4,21.9,29.87,WNW,292,5.8,5.8,65,0.00,CLR,,0.00,WeatherDisplay:10.37,2013-02-25 05:19:00,
2013-02-25 00:24:00,32.4,21.9,29.87,NNW,338,8.1,8.1,65,0.00,CLR,,0.00,WeatherDisplay:10.37,2013-02-25 05:24:00,
2013-02-25 00:29:00,32.4,21.9,29.87,NNW,338,3.5,3.8,65,0.00,CLR,,0.00,WeatherDisplay:10.37,2013-02-25 05:29:00,
2013-02-25 00:34:00,32.4,21.9,29.87,NW,315,2.3,2.5,65,0.00,CLR,,0.00,WeatherDisplay:10.37,2013-02-25 05:34:00,
2013-02-25 00:39:00,32.5,22.1,29.88,NW,315,6.9,6.9,65,0.00,CLR,,0.00,WeatherDisplay:10.37,2013-02-25 05:39:00,
2013-02-25 00:44:00,32.4,22.3,29.88,ENE,68,3.3,3.3,66,0.00,CLR,,0.00,WeatherDisplay:10.37,2013-02-25 05:44:00,
2013-02-25 00:49:00,32.2,22.1,29.88,NNW,338,2.3,2.3,66,0.00,CLR,,0.00,WeatherDisplay:10.37,2013-02-25 05:49:00,
2013-02-25 00:54:00,32.2,22.1,29.88,West,270,3.5,3.5,66,0.00,CLR,,0.00,WeatherDisplay:10.37,2013-02-25 05:54:00,
2013-02-25 01:00:00,32.0,21.9,29.89,NNW,338,3.1,3.1,66,0.00,CLR,,0.00,WeatherDisplay:10.37,2013-02-25 06:00:00,
2013-02-25 01:05:00,32.2,22.1,29.89,North,0,4.6,4.6,66,0.00,CLR,,0.00,WeatherDisplay:10.37,2013-02-25 06:05:00,
2013-02-25 01:10:00,32.0,21.9,29.89,NW,315,4.6,4.6,66,0.00,CLR,,0.00,WeatherDisplay:10.37,2013-02-25 06:10:00,
2013-02-25 01:15:00,31.8,22.1,29.89,NW,315,2.3,2.3,67,0.00,CLR,,0.00,WeatherDisplay:10.37,2013-02-25 06:15:00,
2013-02-25 01:20:00,31.6,21.9,29.91,NW,315,3.5,3.5,67,0.00,CLR,,0.00,WeatherDisplay:10.37,2013-02-25 06:20:00,
2013-02-25 01:25:00,31.6,21.9,29.91,NNW,338,2.3,2.3,67,0.00,CLR,,0.00,WeatherDisplay:10.37,2013-02-25 06:25:00,
2013-02-25 01:30:00,31.6,22.3,29.91,West,270,3.5,3.5,68,0.00,CLR,,0.00,WeatherDisplay:10.37,2013-02-25 06:30:00,
2013-02-25 01:35:00,31.6,22.3,29.91,NW,315,1.1,2.2,68,0.00,CLR,,0.00,WeatherDisplay:10.37,2013-02-25 06:35:00,
2013-02-25 01:40:00,31.6,22.3,29.89,NW,315,2.3,2.3,68,0.00,CLR,,0.00,WeatherDisplay:10.37,2013-02-25 06:40:00,
2013-02-25 01:45:00,31.5,22.1,29.89,NW,315,2.3,2.3,68,0.00,CLR,,0.00,WeatherDisplay:10.37,2013-02-25 06:45:00,
2013-02-25 01:50:00,31.5,22.1,29.89,NW,315,3.5,3.5,68,0.00,CLR,,0.00,WeatherDisplay:10.37,2013-02-25 06:50:00,
2013-02-25 01:55:00,31.5,22.1,29.89,NW,315,2.3,2.3,68,0.00,CLR,,0.00,WeatherDisplay:10.37,2013-02-25 06:55:00,
2013-02-25 02:00:00,31.5,22.1,29.91,WNW,292,3.5,3.5,68,0.00,CLR,,0.00,WeatherDisplay:10.37,2013-02-25 07:00:00,
2013-02-25 02:05:00,31.3,21.9,29.91,West,270,3.1,3.1,68,0.00,CLR,,0.00,WeatherDisplay:10.37,2013-02-25 07:05:00,
2013-02-25 02:10:00,31.5,22.1,29.91,West,270,3.5,3.5,68,0.00,CLR,,0.00,WeatherDisplay:10.37,2013-02-25 07:10:00,
2013-02-25 02:15:00,31.1,22.1,29.91,NW,315,3.0,3.0,69,0.00,CLR,,0.00,WeatherDisplay:10.37,2013-02-25 07:15:00,
2013-02-25 02:20:00,31.3,22.3,29.91,NW,315,3.5,3.5,69,0.00,CLR,,0.00,WeatherDisplay:10.37,2013-02-25 07:20:00,
2013-02-25 02:25:00,31.1,22.1,29.91,WNW,292,1.1,1.8,69,0.00,CLR,,0.00,WeatherDisplay:10.37,2013-02-25 07:25:00,
2013-02-25 02:30:00,31.1,22.1,29.91,West,270,2.3,2.3,69,0.00,CLR,,0.00,WeatherDisplay:10.37,2013-02-25 07:30:00,
2013-02-25 02:35:00,31.1,22.1,29.91,NNW,338,2.3,2.3,69,0.00,CLR,,0.00,WeatherDisplay:10.37,2013-02-25 07:35:00,
2013-02-25 02:40:00,31.1,22.5,29.91,WNW,292,1.1,1.3,70,0.00,CLR,,0.00,WeatherDisplay:10.37,2013-02-25 07:40:00,
2013-02-25 02:45:00,31.1,22.5,29.91,West,270,1.1,1.1,70,0.00,CLR,,0.00,WeatherDisplay:10.37,2013-02-25 07:45:00,
2013-02-25 02:50:00,31.1,22.5,29.91,NW,315,3.5,3.5,70,0.00,CLR,,0.00,WeatherDisplay:10.37,2013-02-25 07:50:00,
2013-02-25 02:55:00,31.1,22.5,29.91,NW,315,2.3,2.3,70,0.00,CLR,,0.00,WeatherDisplay:10.37,2013-02-25 07:55:00,
2013-02-25 03:00:00,31.1,22.5,29.92,NW,315,1.1,1.1,70,0.00,CLR,,0.00,WeatherDisplay:10.37,2013-02-25 08:00:00,
2013-02-25 03:05:00,30.9,22.3,29.92,WNW,292,4.6,4.6,70,0.00,CLR,,0.00,WeatherDisplay:10.37,2013-02-25 08:05:00,
2013-02-25 03:10:00,30.9,22.3,29.92,NW,315,2.3,2.3,70,0.00,CLR,,0.00,WeatherDisplay:10.37,2013-02-25 08:10:00,
2013-02-25 03:15:00,31.1,22.5,29.92,NW,315,1.1,1.1,70,0.00,CLR,,0.00,WeatherDisplay:10.37,2013-02-25 08:15:00,
2013-02-25 03:20:00,30.7,22.4,29.92,West,270,2.3,2.3,71,0.00,CLR,,0.00,WeatherDisplay:10.37,2013-02-25 08:20:00,
2013-02-25 03:25:00,30.7,22.4,29.92,NW,315,0.0,0.7,71,0.00,CLR,,0.00,WeatherDisplay:10.37,2013-02-25 08:25:00,
2013-02-25 03:30:00,30.7,22.4,29.92,West,270,2.3,2.3,71,0.00,CLR,,0.00,WeatherDisplay:10.37,2013-02-25 08:30:00,
2013-02-25 03:35:00,30.7,22.8,29.92,NW,315,2.3,2.3,72,0.00,CLR,,0.00,WeatherDisplay:10.37,2013-02-25 08:35:00,
2013-02-25 03:40:00,30.7,22.8,29.93,NW,315,2.3,2.3,72,0.00,CLR,,0.00,WeatherDisplay:10.37,2013-02-25 08:40:00,
2013-02-25 03:45:00,30.7,22.8,29.93,NW,315,0.0,1.1,72,0.00,CLR,,0.00,WeatherDisplay:10.37,2013-02-25 08:45:00,
2013-02-25 03:50:00,30.7,22.8,29.93,NW,315,0.0,0.8,72,0.00,CLR,,0.00,WeatherDisplay:10.37,2013-02-25 08:50:00,
2013-02-25 03:55:00,30.7,22.8,29.93,ENE,68,0.0,0.5,72,0.00,CLR,,0.00,WeatherDisplay:10.37,2013-02-25 08:55:00,
2013-02-25 04:00:00,30.4,22.4,29.93,NW,315,1.1,1.1,72,0.00,CLR,,0.00,WeatherDisplay:10.37,2013-02-25 09:00:00,
2013-02-25 04:05:00,30.0,22.4,29.93,NW,315,0.0,0.2,73,0.00,CLR,,0.00,WeatherDisplay:10.37,2013-02-25 09:05:00,
2013-02-25 04:10:00,30.0,22.4,29.93,NW,315,0.0,0.1,73,0.00,CLR,,0.00,WeatherDisplay:10.37,2013-02-25 09:10:00,
2013-02-25 04:15:00,30.0,22.4,29.93,NW,315,1.1,1.1,73,0.00,CLR,,0.00,WeatherDisplay:10.37,2013-02-25 09:15:00,
2013-02-25 04:20:00,29.8,22.6,29.93,West,270,0.0,0.3,74,0.00,CLR,,0.00,WeatherDisplay:10.37,2013-02-25 09:20:00,
2013-02-25 04:25:00,30.0,22.7,29.93,WNW,292,0.0,0.2,74,0.00,CLR,,0.00,WeatherDisplay:10.37,2013-02-25 09:25:00,
2013-02-25 04:30:00,29.7,22.7,29.93,NW,315,0.0,0.3,75,0.00,CLR,,0.00,WeatherDisplay:10.37,2013-02-25 09:30:00,
2013-02-25 04:35:00,29.7,22.7,29.93,NW,315,0.0,0.5,75,0.00,CLR,,0.00,WeatherDisplay:10.37,2013-02-25 09:35:00,
2013-02-25 04:40:00,29.5,22.5,29.94,West,270,0.0,0.2,75,0.00,CLR,,0.00,WeatherDisplay:10.37,2013-02-25 09:40:00,
2013-02-25 04:45:00,29.3,22.4,29.94,SW,225,0.0,0.0,75,0.00,CLR,,0.00,WeatherDisplay:10.37,2013-02-25 09:45:00,
2013-02-25 04:50:00,29.3,22.4,29.94,SW,225,0.0,0.0,75,0.00,CLR,,0.00,WeatherDisplay:10.37,2013-02-25 09:50:00,
2013-02-25 04:55:00,29.3,22.4,29.94,WNW,292,1.1,1.1,75,0.00,CLR,,0.00,WeatherDisplay:10.37,2013-02-25 09:55:00,
2013-02-25 05:00:00,29.3,22.7,29.94,WNW,292,1.1,1.1,76,0.00,CLR,,0.00,WeatherDisplay:10.37,2013-02-25 10:00:00,
2013-02-25 05:05:00,29.3,22.7,29.94,WNW,292,1.1,1.1,76,0.00,CLR,,0.00,WeatherDisplay:10.37,2013-02-25 10:05:00,
2013-02-25 05:10:00,29.3,22.7,29.94,West,270,2.3,2.3,76,0.00,CLR,,0.00,WeatherDisplay:10.37,2013-02-25 10:10:00,
2013-02-25 05:15:00,28.9,22.3,29.94,NW,315,1.1,1.1,76,0.00,CLR,,0.00,WeatherDisplay:10.37,2013-02-25 10:15:00,
2013-02-25 05:20:00,29.3,23.0,29.95,West,270,0.0,0.5,77,0.00,CLR,,0.00,WeatherDisplay:10.37,2013-02-25 10:20:00,
2013-02-25 05:25:00,28.9,22.3,29.95,WSW,248,0.0,0.1,76,0.00,CLR,,0.00,WeatherDisplay:10.37,2013-02-25 10:25:00,
2013-02-25 05:30:00,28.9,22.6,29.95,WNW,292,1.1,1.1,77,0.00,CLR,,0.00,WeatherDisplay:10.37,2013-02-25 10:30:00,
2013-02-25 05:35:00,28.8,22.5,29.95,West,270,1.1,1.1,77,0.00,CLR,,0.00,WeatherDisplay:10.37,2013-02-25 10:35:00,
2013-02-25 05:40:00,28.8,22.8,29.96,West,270,0.0,0.3,78,0.00,CLR,,0.00,WeatherDisplay:10.37,2013-02-25 10:40:00,
2013-02-25 05:45:00,28.9,22.9,29.96,West,270,1.1,1.1,78,0.00,CLR,,0.00,WeatherDisplay:10.37,2013-02-25 10:45:00,
2013-02-25 05:50:00,28.9,22.9,29.96,WSW,248,2.3,2.3,78,0.00,CLR,,0.00,WeatherDisplay:10.37,2013-02-25 10:50:00,
2013-02-25 05:55:00,28.9,22.9,29.96,SW,225,0.0,0.6,78,0.00,CLR,,0.00,WeatherDisplay:10.37,2013-02-25 10:55:00,
2013-02-25 06:00:00,28.9,22.9,29.96,SSW,202,0.0,0.1,78,0.00,CLR,,0.00,WeatherDisplay:10.37,2013-02-25 11:00:00,
2013-02-25 06:05:00,28.8,22.8,29.96,West,270,0.0,0.1,78,0.00,CLR,,0.00,WeatherDisplay:10.37,2013-02-25 11:05:00,
2013-02-25 06:10:00,28.8,22.8,29.96,WNW,292,0.0,0.1,78,0.00,CLR,,0.00,WeatherDisplay:10.37,2013-02-25 11:10:00,
2013-02-25 06:15:00,28.8,22.8,29.96,West,270,0.0,0.0,78,0.00,CLR,,0.00,WeatherDisplay:10.37,2013-02-25 11:15:00,
2013-02-25 06:20:00,28.8,22.8,29.96,West,270,1.1,1.1,78,0.00,CLR,,0.00,WeatherDisplay:10.37,2013-02-25 11:20:00,
2013-02-25 06:25:00,28.9,22.9,29.96,NW,315,1.1,1.1,78,0.00,CLR,,0.00,WeatherDisplay:10.37,2013-02-25 11:25:00,
2013-02-25 06:30:00,28.9,23.2,29.96,West,270,0.0,0.5,79,0.00,CLR,,0.00,WeatherDisplay:10.37,2013-02-25 11:30:00,
2013-02-25 06:35:00,28.6,22.9,29.96,WSW,248,0.0,0.5,79,0.00,CLR,,0.00,WeatherDisplay:10.37,2013-02-25 11:35:00,
2013-02-25 06:40:00,28.6,22.9,29.96,West,270,0.0,0.3,79,0.00,CLR,,0.00,WeatherDisplay:10.37,2013-02-25 11:40:00,
2013-02-25 06:45:00,28.6,22.9,29.96,West,270,0.0,0.2,79,0.00,CLR,,0.00,WeatherDisplay:10.37,2013-02-25 11:45:00,
2013-02-25 06:50:00,28.6,22.9,29.96,West,270,0.0,0.0,79,0.00,CLR,,0.00,WeatherDisplay:10.37,2013-02-25 11:50:00,
2013-02-25 06:55:00,28.6,22.9,29.96,WSW,248,0.0,0.0,79,0.00,CLR,,0.00,WeatherDisplay:10.37,2013-02-25 11:55:00,
2013-02-25 07:00:00,28.9,23.5,29.98,West,270,0.0,0.1,80,0.00,CLR,,0.00,WeatherDisplay:10.37,2013-02-25 12:00:00,
2013-02-25 07:05:00,28.9,23.5,29.98,WSW,248,2.3,2.3,80,0.00,CLR,,0.00,WeatherDisplay:10.37,2013-02-25 12:05:00,
2013-02-25 07:10:00,28.9,23.5,29.98,WSW,248,2.3,2.3,80,0.00,CLR,,0.00,WeatherDisplay:10.37,2013-02-25 12:10:00,
2013-02-25 07:15:00,29.3,23.9,29.98,WSW,248,1.1,1.1,80,0.00,CLR,,0.00,WeatherDisplay:10.37,2013-02-25 12:15:00,
2013-02-25 07:20:00,29.3,23.9,30.00,SW,225,0.0,0.3,80,0.00,CLR,,0.00,WeatherDisplay:10.37,2013-02-25 12:20:00,
2013-02-25 07:25:00,29.3,23.9,30.00,WSW,248,2.3,2.3,80,0.00,CLR,,0.00,WeatherDisplay:10.37,2013-02-25 12:25:00,
2013-02-25 07:30:00,29.5,24.1,30.00,West,270,1.5,1.5,80,0.00,CLR,,0.00,WeatherDisplay:10.37,2013-02-25 12:30:00,
2013-02-25 07:35:00,30.0,24.6,30.00,West,270,2.3,2.3,80,0.00,CLR,,0.00,WeatherDisplay:10.37,2013-02-25 12:35:00,
2013-02-25 07:40:00,30.4,24.9,30.00,WSW,248,2.6,2.6,80,0.00,CLR,,0.00,WeatherDisplay:10.37,2013-02-25 12:40:00,
2013-02-25 07:46:00,31.5,25.7,30.00,WSW,248,2.3,2.3,79,0.00,CLR,,0.00,WeatherDisplay:10.37,2013-02-25 12:46:00,
2013-02-25 07:51:00,31.8,26.0,30.00,West,270,1.4,1.4,79,0.00,CLR,,0.00,WeatherDisplay:10.37,2013-02-25 12:51:00,
2013-02-25 07:56:00,32.4,26.3,30.00,WNW,292,2.3,2.3,78,0.00,CLR,,0.00,WeatherDisplay:10.37,2013-02-25 12:56:00,
2013-02-25 08:01:00,33.1,27.0,30.00,NW,315,3.5,3.5,78,0.00,CLR,,0.00,WeatherDisplay:10.37,2013-02-25 13:01:00,
2013-02-25 08:07:00,34.0,27.5,30.00,NW,315,2.4,2.4,77,0.00,CLR,,0.00,WeatherDisplay:10.37,2013-02-25 13:07:00,
2013-02-25 08:12:00,34.5,27.7,30.00,NW,315,1.4,1.7,76,0.00,CLR,,0.00,WeatherDisplay:10.37,2013-02-25 13:12:00,
2013-02-25 08:17:00,35.1,27.6,30.01,North,0,6.9,6.9,74,0.00,CLR,,0.00,WeatherDisplay:10.37,2013-02-25 13:17:00,
2013-02-25 08:22:00,35.6,28.1,30.01,West,270,3.5,3.5,74,0.00,CLR,,0.00,WeatherDisplay:10.37,2013-02-25 13:22:00,
2013-02-25 08:27:00,36.0,28.1,30.01,NW,315,3.5,3.5,73,0.00,CLR,,0.00,WeatherDisplay:10.37,2013-02-25 13:27:00,
2013-02-25 08:32:00,36.1,28.0,30.01,NNE,22,3.5,3.5,72,0.00,CLR,,0.00,WeatherDisplay:10.37,2013-02-25 13:32:00,
2013-02-25 08:37:00,36.5,28.0,30.01,NE,45,4.6,4.6,71,0.00,CLR,,0.00,WeatherDisplay:10.37,2013-02-25 13:37:00,
2013-02-25 08:42:00,36.9,28.3,30.01,NW,315,6.9,6.9,71,0.00,CLR,,0.00,WeatherDisplay:10.37,2013-02-25 13:42:00,
2013-02-25 08:47:00,37.2,28.3,30.01,NW,315,6.3,6.3,70,0.00,CLR,,0.00,WeatherDisplay:10.37,2013-02-25 13:47:00,
2013-02-25 08:52:00,37.4,28.2,30.01,NW,315,6.9,6.9,69,0.00,CLR,,0.00,WeatherDisplay:10.37,2013-02-25 13:52:00,
2013-02-25 08:57:00,37.9,28.7,30.01,NNE,22,6.9,6.9,69,0.00,CLR,,0.00,WeatherDisplay:10.37,2013-02-25 13:57:00,
2013-02-25 09:02:00,38.1,28.5,30.01,NW,315,5.8,5.8,68,0.00,CLR,,0.00,WeatherDisplay:10.37,2013-02-25 14:02:00,
2013-02-25 09:07:00,38.3,28.7,30.01,NNW,338,5.8,5.8,68,0.00,CLR,,0.00,WeatherDisplay:10.37,2013-02-25 14:07:00,
2013-02-25 09:13:00,38.5,28.5,30.01,NNE,22,4.6,4.6,67,0.00,CLR,,0.00,WeatherDisplay:10.37,2013-02-25 14:13:00,
2013-02-25 09:18:00,38.8,28.8,30.02,WSW,248,9.2,9.2,67,0.00,CLR,,0.00,WeatherDisplay:10.37,2013-02-25 14:18:00,
2013-02-25 09:23:00,39.0,28.6,30.02,NW,315,9.2,9.2,66,0.00,CLR,,0.00,WeatherDisplay:10.37,2013-02-25 14:23:00,
2013-02-25 09:28:00,39.4,28.6,30.02,NNW,338,8.1,8.1,65,0.00,CLR,,0.00,WeatherDisplay:10.37,2013-02-25 14:28:00,
2013-02-25 09:33:00,39.6,28.8,30.02,NW,315,3.5,4.6,65,0.00,CLR,,0.00,WeatherDisplay:10.37,2013-02-25 14:33:00,
2013-02-25 09:38:00,39.7,28.9,30.01,NW,315,3.5,3.5,65,0.00,CLR,,0.00,WeatherDisplay:10.37,2013-02-25 14:38:00,
2013-02-25 09:43:00,40.1,28.9,30.01,NW,315,6.9,6.9,64,0.00,CLR,,0.00,WeatherDisplay:10.37,2013-02-25 14:43:00,
2013-02-25 09:48:00,40.3,28.7,30.01,NW,315,2.3,3.8,63,0.00,CLR,,0.00,WeatherDisplay:10.37,2013-02-25 14:48:00,
2013-02-25 09:53:00,40.6,29.0,30.01,NW,315,8.1,8.1,63,0.00,CLR,,0.00,WeatherDisplay:10.37,2013-02-25 14:53:00,
2013-02-25 09:58:00,41.0,29.0,30.02,NNW,338,2.3,4.1,62,0.00,CLR,,0.00,WeatherDisplay:10.37,2013-02-25 14:58:00,
2013-02-25 10:03:00,41.7,29.6,30.02,NE,45,5.8,5.8,62,0.00,CLR,,0.00,WeatherDisplay:10.37,2013-02-25 15:03:00,
2013-02-25 10:08:00,42.3,29.4,30.02,NNE,22,3.5,3.5,60,0.00,CLR,,0.00,WeatherDisplay:10.37,2013-02-25 15:08:00,
2013-02-25 10:14:00,42.3,28.9,30.02,NW,315,4.6,4.6,59,0.00,CLR,,0.00,WeatherDisplay:10.37,2013-02-25 15:14:00,
2013-02-25 10:19:00,43.0,29.2,30.02,West,270,4.6,4.6,58,0.00,CLR,,0.00,WeatherDisplay:10.37,2013-02-25 15:19:00,
2013-02-25 10:24:00,43.0,29.6,30.02,NNW,338,5.8,5.8,59,0.00,CLR,,0.00,WeatherDisplay:10.37,2013-02-25 15:24:00,
2013-02-25 10:29:00,42.8,29.0,30.02,NW,315,9.2,9.2,58,0.00,CLR,,0.00,WeatherDisplay:10.37,2013-02-25 15:29:00,
2013-02-25 10:34:00,42.6,28.4,30.02,NNW,338,3.5,5.2,57,0.00,CLR,,0.00,WeatherDisplay:10.37,2013-02-25 15:34:00,
2013-02-25 10:39:00,42.6,29.3,30.03,NNW,338,5.8,5.8,59,0.00,CLR,,0.00,WeatherDisplay:10.37,2013-02-25 15:39:00,
2013-02-25 10:44:00,43.0,29.2,30.03,NNE,22,5.8,5.8,58,0.00,CLR,,0.00,WeatherDisplay:10.37,2013-02-25 15:44:00,
2013-02-25 10:49:00,43.0,29.2,30.03,NNW,338,3.5,3.5,58,0.00,CLR,,0.00,WeatherDisplay:10.37,2013-02-25 15:49:00,
2013-02-25 10:54:00,42.8,29.0,30.03,NW,315,2.3,2.6,58,0.00,CLR,,0.00,WeatherDisplay:10.37,2013-02-25 15:54:00,
2013-02-25 10:59:00,43.0,29.2,30.04,South,180,2.3,3.5,58,0.00,CLR,,0.00,WeatherDisplay:10.37,2013-02-25 15:59:00,
2013-02-25 11:04:00,43.3,29.1,30.04,NNW,338,4.6,4.6,57,0.00,CLR,,0.00,WeatherDisplay:10.37,2013-02-25 16:04:00,
2013-02-25 11:09:00,44.1,29.8,30.04,NW,315,6.9,6.9,57,0.00,CLR,,0.00,WeatherDisplay:10.37,2013-02-25 16:09:00,
2013-02-25 11:14:00,44.4,30.1,30.04,NNW,338,4.6,4.6,57,0.00,CLR,,0.00,WeatherDisplay:10.37,2013-02-25 16:14:00,
2013-02-25 11:19:00,43.9,28.7,30.03,NNE,22,3.5,3.5,55,0.00,CLR,,0.00,WeatherDisplay:10.37,2013-02-25 16:19:00,
2013-02-25 11:24:00,43.9,28.7,30.03,NW,315,4.6,4.6,55,0.00,CLR,,0.00,WeatherDisplay:10.37,2013-02-25 16:24:00,
2013-02-25 11:29:00,43.9,28.7,30.03,WNW,292,5.8,5.8,55,0.00,CLR,,0.00,WeatherDisplay:10.37,2013-02-25 16:29:00,
2013-02-25 11:34:00,43.9,28.7,30.03,NW,315,2.3,2.6,55,0.00,CLR,,0.00,WeatherDisplay:10.37,2013-02-25 16:34:00,
2013-02-25 11:39:00,43.9,28.7,30.02,NNW,338,8.1,8.1,55,0.00,CLR,,0.00,WeatherDisplay:10.37,2013-02-25 16:39:00,
2013-02-25 11:44:00,43.9,28.7,30.02,NW,315,2.3,3.5,55,0.00,CLR,,0.00,WeatherDisplay:10.37,2013-02-25 16:44:00,
2013-02-25 11:49:00,44.1,29.4,30.02,NNW,338,2.3,2.6,56,0.00,CLR,,0.00,WeatherDisplay:10.37,2013-02-25 16:49:00,
2013-02-25 11:54:00,44.1,28.5,30.02,NNW,338,3.5,3.5,54,0.00,CLR,,0.00,WeatherDisplay:10.37,2013-02-25 16:54:00,
2013-02-25 11:59:00,44.1,28.5,30.03,NW,315,5.2,5.2,54,0.00,CLR,,0.00,WeatherDisplay:10.37,2013-02-25 16:59:00,
2013-02-25 12:04:00,44.4,29.2,30.03,North,0,4.6,4.6,55,0.00,CLR,,0.00,WeatherDisplay:10.37,2013-02-25 17:04:00,
2013-02-25 12:09:00,44.4,29.2,30.03,NNE,22,6.9,6.9,55,0.00,CLR,,0.00,WeatherDisplay:10.37,2013-02-25 17:09:00,
2013-02-25 12:14:00,44.4,29.2,30.03,NNE,22,6.9,6.9,55,0.00,CLR,,0.00,WeatherDisplay:10.37,2013-02-25 17:14:00,
2013-02-25 12:19:00,44.4,28.8,30.03,NNE,22,5.8,5.8,54,0.00,CLR,,0.00,WeatherDisplay:10.37,2013-02-25 17:19:00,
2013-02-25 12:24:00,44.6,29.0,30.03,NW,315,3.5,3.5,54,0.00,CLR,,0.00,WeatherDisplay:10.37,2013-02-25 17:24:00,
2013-02-25 12:29:00,45.3,29.2,30.03,NW,315,4.6,4.6,53,0.00,CLR,,0.00,WeatherDisplay:10.37,2013-02-25 17:29:00,
2013-02-25 12:34:00,45.3,28.7,30.03,NNW,338,2.3,2.3,52,0.00,CLR,,0.00,WeatherDisplay:10.37,2013-02-25 17:34:00,
2013-02-25 12:39:00,45.0,28.8,30.03,West,270,2.3,2.3,53,0.00,CLR,,0.00,WeatherDisplay:10.37,2013-02-25 17:39:00,
2013-02-25 12:44:00,45.1,28.1,30.03,NNW,338,4.6,4.6,51,0.00,CLR,,0.00,WeatherDisplay:10.37,2013-02-25 17:44:00,
2013-02-25 12:49:00,45.1,28.1,30.03,WNW,292,2.3,2.5,51,0.00,CLR,,0.00,WeatherDisplay:10.37,2013-02-25 17:49:00,
2013-02-25 12:54:00,45.3,28.7,30.03,North,0,6.9,6.9,52,0.00,CLR,,0.00,WeatherDisplay:10.37,2013-02-25 17:54:00,
2013-02-25 12:59:00,45.5,29.3,30.03,NNW,338,6.9,6.9,53,0.00,CLR,,0.00,WeatherDisplay:10.37,2013-02-25 17:59:00,
2013-02-25 13:04:00,45.3,28.7,30.03,NNE,22,3.5,3.5,52,0.00,CLR,,0.00,WeatherDisplay:10.37,2013-02-25 18:04:00,
2013-02-25 13:09:00,45.1,28.5,30.03,NNW,338,5.8,5.8,52,0.00,CLR,,0.00,WeatherDisplay:10.37,2013-02-25 18:09:00,
2013-02-25 13:14:00,44.8,27.7,30.03,NW,315,3.5,3.5,51,0.00,CLR,,0.00,WeatherDisplay:10.37,2013-02-25 18:14:00,
2013-02-25 13:19:00,44.6,27.6,30.03,NNE,22,3.1,3.1,51,0.00,CLR,,0.00,WeatherDisplay:10.37,2013-02-25 18:19:00,
2013-02-25 13:24:00,45.1,28.1,30.03,NNE,22,4.3,4.3,51,0.00,CLR,,0.00,WeatherDisplay:10.37,2013-02-25 18:24:00,
2013-02-25 13:29:00,45.1,28.5,30.03,NNW,338,4.0,4.0,52,0.00,CLR,,0.00,WeatherDisplay:10.37,2013-02-25 18:29:00,
2013-02-25 13:34:00,45.0,27.9,30.03,NW,315,11.5,11.5,51,0.00,CLR,,0.00,WeatherDisplay:10.37,2013-02-25 18:34:00,
2013-02-25 13:39:00,45.0,27.9,30.02,West,270,5.1,5.1,51,0.00,CLR,,0.00,WeatherDisplay:10.37,2013-02-25 18:39:00,
2013-02-25 13:44:00,45.1,28.1,30.02,NW,315,8.3,8.3,51,0.00,CLR,,0.00,WeatherDisplay:10.37,2013-02-25 18:44:00,
2013-02-25 13:49:00,45.0,26.9,30.02,North,0,5.8,5.8,49,0.00,CLR,,0.00,WeatherDisplay:10.37,2013-02-25 18:49:00,
2013-02-25 13:54:00,45.1,27.6,30.02,WSW,248,3.5,3.5,50,0.00,CLR,,0.00,WeatherDisplay:10.37,2013-02-25 18:54:00,
2013-02-25 13:59:00,45.0,27.4,30.03,NNW,338,4.6,4.6,50,0.00,CLR,,0.00,WeatherDisplay:10.37,2013-02-25 18:59:00,
2013-02-25 14:04:00,45.1,28.1,30.03,North,0,5.8,5.8,51,0.00,CLR,,0.00,WeatherDisplay:10.37,2013-02-25 19:04:00,
2013-02-25 14:10:00,45.3,27.8,30.03,NW,315,6.9,6.9,50,0.00,CLR,,0.00,WeatherDisplay:10.37,2013-02-25 19:10:00,
2013-02-25 14:15:00,45.1,27.6,30.03,NW,315,6.9,6.9,50,0.00,CLR,,0.00,WeatherDisplay:10.37,2013-02-25 19:15:00,
2013-02-25 14:20:00,45.3,27.8,30.03,NNW,338,8.1,8.1,50,0.00,CLR,,0.00,WeatherDisplay:10.37,2013-02-25 19:20:00,
2013-02-25 14:25:00,45.3,27.8,30.03,NNW,338,3.5,3.5,50,0.00,CLR,,0.00,WeatherDisplay:10.37,2013-02-25 19:25:00,
2013-02-25 14:30:00,45.5,27.9,30.03,NNW,338,6.9,6.9,50,0.00,CLR,,0.00,WeatherDisplay:10.37,2013-02-25 19:30:00,
2013-02-25 14:35:00,45.1,28.1,30.03,WNW,292,5.8,5.8,51,0.00,CLR,,0.00,WeatherDisplay:10.37,2013-02-25 19:35:00,
2013-02-25 14:40:00,45.1,28.1,30.03,WSW,248,4.6,4.6,51,0.00,CLR,,0.00,WeatherDisplay:10.37,2013-02-25 19:40:00,
2013-02-25 14:45:00,45.1,27.6,30.03,NW,315,4.6,4.6,50,0.00,CLR,,0.00,WeatherDisplay:10.37,2013-02-25 19:45:00,
2013-02-25 14:50:00,45.0,27.9,30.03,NNE,22,4.6,4.6,51,0.00,CLR,,0.00,WeatherDisplay:10.37,2013-02-25 19:50:00,
2013-02-25 14:55:00,44.6,27.6,30.03,WNW,292,5.8,5.8,51,0.00,CLR,,0.00,WeatherDisplay:10.37,2013-02-25 19:55:00,
2013-02-25 15:00:00,44.4,27.4,30.04,NNW,338,6.1,6.1,51,0.00,CLR,,0.00,WeatherDisplay:10.37,2013-02-25 20:00:00,
2013-02-25 15:05:00,44.1,27.5,30.04,NW,315,6.9,6.9,52,0.00,CLR,,0.00,WeatherDisplay:10.37,2013-02-25 20:05:00,
2013-02-25 15:10:00,44.1,27.1,30.04,NW,315,6.9,6.9,51,0.00,CLR,,0.00,WeatherDisplay:10.37,2013-02-25 20:10:00,
2013-02-25 15:15:00,43.9,27.4,30.04,North,0,6.9,6.9,52,0.00,CLR,,0.00,WeatherDisplay:10.37,2013-02-25 20:15:00,
2013-02-25 15:20:00,44.1,27.1,30.04,NNE,22,5.8,5.8,51,0.00,CLR,,0.00,WeatherDisplay:10.37,2013-02-25 20:20:00,
2013-02-25 15:25:00,44.1,26.6,30.04,North,0,6.7,6.7,50,0.00,CLR,,0.00,WeatherDisplay:10.37,2013-02-25 20:25:00,
2013-02-25 15:30:00,44.2,27.2,30.04,North,0,3.5,3.5,51,0.00,CLR,,0.00,WeatherDisplay:10.37,2013-02-25 20:30:00,
2013-02-25 15:35:00,44.1,27.1,30.04,WNW,292,6.9,6.9,51,0.00,CLR,,0.00,WeatherDisplay:10.37,2013-02-25 20:35:00,
2013-02-25 15:40:00,43.9,27.4,30.04,NW,315,3.5,3.5,52,0.00,CLR,,0.00,WeatherDisplay:10.37,2013-02-25 20:40:00,
2013-02-25 15:45:00,43.9,27.4,30.04,NW,315,3.5,3.5,52,0.00,CLR,,0.00,WeatherDisplay:10.37,2013-02-25 20:45:00,
2013-02-25 15:50:00,43.5,27.5,30.04,NNW,338,5.8,5.8,53,0.00,CLR,,0.00,WeatherDisplay:10.37,2013-02-25 20:50:00,
2013-02-25 15:55:00,43.7,27.7,30.04,NW,315,4.6,4.6,53,0.00,CLR,,0.00,WeatherDisplay:10.37,2013-02-25 20:55:00,
2013-02-25 16:00:00,43.5,27.5,30.05,NW,315,3.5,3.5,53,0.00,CLR,,0.00,WeatherDisplay:10.37,2013-02-25 21:00:00,
2013-02-25 16:05:00,43.3,27.3,30.05,WNW,292,4.6,4.6,53,0.00,CLR,,0.00,WeatherDisplay:10.37,2013-02-25 21:05:00,
2013-02-25 16:10:00,43.2,27.6,30.05,NW,315,3.5,3.5,54,0.00,CLR,,0.00,WeatherDisplay:10.37,2013-02-25 21:10:00,
2013-02-25 16:16:00,43.2,27.2,30.05,NNE,22,3.5,3.5,53,0.00,CLR,,0.00,WeatherDisplay:10.37,2013-02-25 21:16:00,
2013-02-25 16:21:00,43.0,27.0,30.04,North,0,4.6,4.6,53,0.00,CLR,,0.00,WeatherDisplay:10.37,2013-02-25 21:21:00,
2013-02-25 16:26:00,43.0,27.5,30.04,WSW,248,3.5,3.5,54,0.00,CLR,,0.00,WeatherDisplay:10.37,2013-02-25 21:26:00,
2013-02-25 16:31:00,43.0,27.5,30.04,WNW,292,4.6,4.6,54,0.00,CLR,,0.00,WeatherDisplay:10.37,2013-02-25 21:31:00,
2013-02-25 16:36:00,43.0,27.5,30.04,North,0,4.6,4.6,54,0.00,CLR,,0.00,WeatherDisplay:10.37,2013-02-25 21:36:00,
2013-02-25 16:41:00,42.6,27.6,30.04,South,180,1.1,2.1,55,0.00,CLR,,0.00,WeatherDisplay:10.37,2013-02-25 21:41:00,
2013-02-25 16:46:00,42.6,27.6,30.04,NNE,22,1.4,1.4,55,0.00,CLR,,0.00,WeatherDisplay:10.37,2013-02-25 21:46:00,
2013-02-25 16:51:00,42.4,27.4,30.04,NW,315,4.6,4.6,55,0.00,CLR,,0.00,WeatherDisplay:10.37,2013-02-25 21:51:00,
2013-02-25 16:56:00,42.3,27.7,30.04,NW,315,4.6,4.6,56,0.00,CLR,,0.00,WeatherDisplay:10.37,2013-02-25 21:56:00,
2013-02-25 17:01:00,42.3,27.2,30.06,North,0,5.8,5.8,55,0.00,CLR,,0.00,WeatherDisplay:10.37,2013-02-25 22:01:00,
2013-02-25 17:06:00,42.3,27.7,30.06,NNW,338,4.6,4.6,56,0.00,CLR,,0.00,WeatherDisplay:10.37,2013-02-25 22:06:00,
2013-02-25 17:11:00,42.1,27.5,30.06,West,270,2.3,2.4,56,0.00,CLR,,0.00,WeatherDisplay:10.37,2013-02-25 22:11:00,
2013-02-25 17:16:00,41.9,26.9,30.06,WNW,292,3.5,3.5,55,0.00,CLR,,0.00,WeatherDisplay:10.37,2013-02-25 22:16:00,
2013-02-25 17:21:00,41.7,27.2,30.06,NW,315,4.6,4.6,56,0.00,CLR,,0.00,WeatherDisplay:10.37,2013-02-25 22:21:00,
2013-02-25 17:26:00,41.7,27.6,30.06,North,0,2.3,2.3,57,0.00,CLR,,0.00,WeatherDisplay:10.37,2013-02-25 22:26:00,
2013-02-25 17:31:00,41.7,27.6,30.06,NNW,338,2.3,2.4,57,0.00,CLR,,0.00,WeatherDisplay:10.37,2013-02-25 22:31:00,
2013-02-25 17:36:00,41.5,27.8,30.06,NW,315,2.3,2.3,58,0.00,CLR,,0.00,WeatherDisplay:10.37,2013-02-25 22:36:00,
2013-02-25 17:41:00,41.4,27.7,30.06,NW,315,3.5,3.5,58,0.00,CLR,,0.00,WeatherDisplay:10.37,2013-02-25 22:41:00,
2013-02-25 17:46:00,41.2,27.5,30.06,WNW,292,0.0,2.4,58,0.00,CLR,,0.00,WeatherDisplay:10.37,2013-02-25 22:46:00,
2013-02-25 17:51:00,41.2,27.5,30.06,NNW,338,2.3,2.3,58,0.00,CLR,,0.00,WeatherDisplay:10.37,2013-02-25 22:51:00,
2013-02-25 17:57:00,40.8,27.6,30.06,NE,45,1.1,1.1,59,0.00,CLR,,0.00,WeatherDisplay:10.37,2013-02-25 22:57:00,
2013-02-25 18:02:00,40.8,27.6,30.07,NW,315,4.6,4.6,59,0.00,CLR,,0.00,WeatherDisplay:10.37,2013-02-25 23:02:00,
2013-02-25 18:07:00,40.5,27.2,30.07,NW,315,3.5,3.5,59,0.00,CLR,,0.00,WeatherDisplay:10.37,2013-02-25 23:07:00,
2013-02-25 18:12:00,40.3,27.5,30.07,NW,315,3.5,3.5,60,0.00,CLR,,0.00,WeatherDisplay:10.37,2013-02-25 23:12:00,
2013-02-25 18:17:00,40.5,27.7,30.07,NW,315,2.3,2.3,60,0.00,CLR,,0.00,WeatherDisplay:10.37,2013-02-25 23:17:00,
2013-02-25 18:22:00,40.3,27.9,30.08,NW,315,1.1,1.1,61,0.00,CLR,,0.00,WeatherDisplay:10.37,2013-02-25 23:22:00,
2013-02-25 18:27:00,40.1,27.7,30.08,NW,315,1.1,1.1,61,0.00,CLR,,0.00,WeatherDisplay:10.37,2013-02-25 23:27:00,
2013-02-25 18:32:00,40.1,27.7,30.08,NW,315,2.3,2.3,61,0.00,CLR,,0.00,WeatherDisplay:10.37,2013-02-25 23:32:00,
2013-02-25 18:37:00,39.9,27.5,30.08,NNW,338,2.3,2.3,61,0.00,CLR,,0.00,WeatherDisplay:10.37,2013-02-25 23:37:00,
2013-02-25 18:42:00,40.1,28.1,30.08,NW,315,1.1,1.1,62,0.00,CLR,,0.00,WeatherDisplay:10.37,2013-02-25 23:42:00,
2013-02-25 18:47:00,40.1,28.1,30.08,West,270,1.1,1.1,62,0.00,CLR,,0.00,WeatherDisplay:10.37,2013-02-25 23:47:00,
2013-02-25 18:52:00,39.7,27.8,30.08,WNW,292,0.0,0.3,62,0.00,CLR,,0.00,WeatherDisplay:10.37,2013-02-25 23:52:00,
2013-02-25 18:57:00,39.7,27.8,30.10,NW,315,2.3,2.3,62,0.00,CLR,,0.00,WeatherDisplay:10.37,2013-02-25 23:57:00,
2013-02-25 19:02:00,39.7,28.2,30.10,NW,315,2.3,2.3,63,0.00,CLR,,0.00,WeatherDisplay:10.37,2013-02-26 00:02:00,
2013-02-25 19:07:00,39.7,28.2,30.10,NW,315,0.0,0.3,63,0.00,CLR,,0.00,WeatherDisplay:10.37,2013-02-26 00:07:00,
2013-02-25 19:12:00,39.7,27.8,30.10,NNW,338,1.1,1.1,62,0.00,CLR,,0.00,WeatherDisplay:10.37,2013-02-26 00:12:00,
2013-02-25 19:17:00,39.6,28.0,30.10,NW,315,0.0,0.2,63,0.00,CLR,,0.00,WeatherDisplay:10.37,2013-02-26 00:17:00,
2013-02-25 19:22:00,39.7,28.2,30.10,NW,315,0.0,0.1,63,0.00,CLR,,0.00,WeatherDisplay:10.37,2013-02-26 00:22:00,
2013-02-25 19:27:00,39.7,28.2,30.10,WNW,292,0.0,0.1,63,0.00,CLR,,0.00,WeatherDisplay:10.37,2013-02-26 00:27:00,
2013-02-25 19:32:00,39.7,28.5,30.10,West,270,0.0,0.1,64,0.00,CLR,,0.00,WeatherDisplay:10.37,2013-02-26 00:32:00,
2013-02-25 19:37:00,39.6,28.0,30.10,NW,315,0.0,0.0,63,0.00,CLR,,0.00,WeatherDisplay:10.37,2013-02-26 00:37:00,
2013-02-25 19:42:00,39.6,28.4,30.10,WNW,292,0.0,0.0,64,0.00,CLR,,0.00,WeatherDisplay:10.37,2013-02-26 00:42:00,
2013-02-25 19:47:00,39.6,28.4,30.10,NW,315,0.0,0.0,64,0.00,CLR,,0.00,WeatherDisplay:10.37,2013-02-26 00:47:00,
2013-02-25 19:52:00,39.7,28.9,30.10,West,270,0.0,0.0,65,0.00,CLR,,0.00,WeatherDisplay:10.37,2013-02-26 00:52:00,
2013-02-25 19:57:00,39.7,28.9,30.11,West,270,0.0,0.0,65,0.00,CLR,,0.00,WeatherDisplay:10.37,2013-02-26 00:57:00,
2013-02-25 20:02:00,39.6,28.8,30.11,West,270,0.0,0.0,65,0.00,CLR,,0.00,WeatherDisplay:10.37,2013-02-26 01:02:00,
2013-02-25 20:07:00,39.6,29.1,30.11,SW,225,0.0,0.0,66,0.00,CLR,,0.00,WeatherDisplay:10.37,2013-02-26 01:07:00,
2013-02-25 20:12:00,39.4,29.0,30.11,NE,45,0.0,0.0,66,0.00,CLR,,0.00,WeatherDisplay:10.37,2013-02-26 01:12:00,
2013-02-25 20:17:00,39.4,29.0,30.11,WSW,248,0.0,0.0,66,0.00,CLR,,0.00,WeatherDisplay:10.37,2013-02-26 01:17:00,
2013-02-25 20:22:00,39.4,28.6,30.11,WNW,292,0.0,0.0,65,0.00,CLR,,0.00,WeatherDisplay:10.37,2013-02-26 01:22:00,
2013-02-25 20:27:00,39.4,29.0,30.11,NW,315,0.0,0.0,66,0.00,CLR,,0.00,WeatherDisplay:10.37,2013-02-26 01:27:00,
2013-02-25 20:32:00,39.4,28.6,30.11,NW,315,0.0,0.0,65,0.00,CLR,,0.00,WeatherDisplay:10.37,2013-02-26 01:32:00,
2013-02-25 20:37:00,39.4,28.6,30.11,WNW,292,0.0,0.0,65,0.00,CLR,,0.00,WeatherDisplay:10.37,2013-02-26 01:37:00,
2013-02-25 20:42:00,39.2,28.8,30.11,NW,315,0.0,0.0,66,0.00,CLR,,0.00,WeatherDisplay:10.37,2013-02-26 01:42:00,
2013-02-25 20:47:00,39.4,29.0,30.11,NW,315,1.1,1.1,66,0.00,CLR,,0.00,WeatherDisplay:10.37,2013-02-26 01:47:00,
2013-02-25 20:52:00,39.2,28.4,30.11,NW,315,0.0,0.0,65,0.00,CLR,,0.00,WeatherDisplay:10.37,2013-02-26 01:52:00,
2013-02-25 20:57:00,39.4,28.6,30.12,NW,315,0.0,0.0,65,0.00,CLR,,0.00,WeatherDisplay:10.37,2013-02-26 01:57:00,
2013-02-25 21:02:00,39.2,28.8,30.12,NW,315,0.0,0.0,66,0.00,CLR,,0.00,WeatherDisplay:10.37,2013-02-26 02:02:00,
2013-02-25 21:07:00,39.4,29.0,30.12,NW,315,0.0,0.0,66,0.00,CLR,,0.00,WeatherDisplay:10.37,2013-02-26 02:07:00,
2013-02-25 21:12:00,39.4,29.0,30.12,NW,315,0.0,0.0,66,0.00,CLR,,0.00,WeatherDisplay:10.37,2013-02-26 02:12:00,
2013-02-25 21:17:00,39.4,29.3,30.11,WNW,292,0.0,0.0,67,0.00,CLR,,0.00,WeatherDisplay:10.37,2013-02-26 02:17:00,
2013-02-25 21:22:00,39.2,29.2,30.11,NW,315,0.0,0.0,67,0.00,CLR,,0.00,WeatherDisplay:10.37,2013-02-26 02:22:00,
2013-02-25 21:27:00,39.0,29.0,30.11,WNW,292,0.0,0.0,67,0.00,CLR,,0.00,WeatherDisplay:10.37,2013-02-26 02:27:00,
2013-02-25 21:32:00,39.0,29.0,30.11,WNW,292,0.0,0.0,67,0.00,CLR,,0.00,WeatherDisplay:10.37,2013-02-26 02:32:00,
2013-02-25 21:37:00,38.8,28.8,30.12,NW,315,0.0,0.0,67,0.00,CLR,,0.00,WeatherDisplay:10.37,2013-02-26 02:37:00,
2013-02-25 21:42:00,38.8,28.8,30.12,NNW,338,2.3,2.3,67,0.00,CLR,,0.00,WeatherDisplay:10.37,2013-02-26 02:42:00,
2013-02-25 21:47:00,38.8,28.8,30.12,NW,315,1.1,1.1,67,0.00,CLR,,0.00,WeatherDisplay:10.37,2013-02-26 02:47:00,
2013-02-25 21:52:00,38.8,28.8,30.12,North,0,2.3,2.3,67,0.00,CLR,,0.00,WeatherDisplay:10.37,2013-02-26 02:52:00,
2013-02-25 21:57:00,38.7,28.6,30.12,NW,315,0.0,0.7,67,0.00,CLR,,0.00,WeatherDisplay:10.37,2013-02-26 02:57:00,
2013-02-25 22:02:00,38.7,28.6,30.12,NW,315,1.1,1.1,67,0.00,CLR,,0.00,WeatherDisplay:10.37,2013-02-26 03:02:00,
2013-02-25 22:07:00,38.5,28.5,30.12,NW,315,2.3,2.3,67,0.00,CLR,,0.00,WeatherDisplay:10.37,2013-02-26 03:07:00,
2013-02-25 22:12:00,38.7,28.6,30.12,NW,315,2.3,2.3,67,0.00,CLR,,0.00,WeatherDisplay:10.37,2013-02-26 03:12:00,
2013-02-25 22:17:00,38.5,28.5,30.12,NNW,338,3.1,3.1,67,0.00,CLR,,0.00,WeatherDisplay:10.37,2013-02-26 03:17:00,
2013-02-25 22:22:00,38.3,28.3,30.12,NW,315,2.3,2.3,67,0.00,CLR,,0.00,WeatherDisplay:10.37,2013-02-26 03:22:00,
2013-02-25 22:27:00,38.1,28.1,30.12,NNW,338,4.6,4.6,67,0.00,CLR,,0.00,WeatherDisplay:10.37,2013-02-26 03:27:00,
2013-02-25 22:32:00,38.1,28.1,30.12,NNW,338,2.3,2.3,67,0.00,CLR,,0.00,WeatherDisplay:10.37,2013-02-26 03:32:00,
2013-02-25 22:38:00,38.1,28.1,30.12,NNE,22,1.1,1.4,67,0.00,CLR,,0.00,WeatherDisplay:10.37,2013-02-26 03:38:00,
2013-02-25 22:43:00,38.1,28.1,30.12,NNE,22,0.0,0.5,67,0.00,CLR,,0.00,WeatherDisplay:10.37,2013-02-26 03:43:00,
2013-02-25 22:48:00,37.8,27.8,30.12,NW,315,0.0,0.0,67,0.00,CLR,,0.00,WeatherDisplay:10.37,2013-02-26 03:48:00,
2013-02-25 22:53:00,37.6,27.6,30.12,NE,45,1.1,0.0,67,0.00,CLR,,0.00,WeatherDisplay:10.37,2013-02-26 03:53:00,
2013-02-25 22:58:00,37.6,28.0,30.12,NNW,338,0.0,0.1,68,0.00,CLR,,0.00,WeatherDisplay:10.37,2013-02-26 03:58:00,
2013-02-25 23:03:00,37.0,27.5,30.12,NW,315,0.0,0.0,68,0.00,CLR,,0.00,WeatherDisplay:10.37,2013-02-26 04:03:00,
2013-02-25 23:08:00,36.7,27.5,30.12,NW,315,0.0,0.0,69,0.00,CLR,,0.00,WeatherDisplay:10.37,2013-02-26 04:08:00,
2013-02-25 23:13:00,36.5,27.3,30.12,NW,315,0.0,0.0,69,0.00,CLR,,0.00,WeatherDisplay:10.37,2013-02-26 04:13:00,
2013-02-25 23:18:00,36.3,27.1,30.11,NW,315,0.0,0.0,69,0.00,CLR,,0.00,WeatherDisplay:10.37,2013-02-26 04:18:00,
2013-02-25 23:23:00,36.0,27.1,30.11,NW,315,0.0,0.0,70,0.00,CLR,,0.00,WeatherDisplay:10.37,2013-02-26 04:23:00,
2013-02-25 23:28:00,36.0,27.5,30.11,North,0,0.0,0.0,71,0.00,CLR,,0.00,WeatherDisplay:10.37,2013-02-26 04:28:00,
2013-02-25 23:33:00,35.8,27.3,30.11,ESE,112,0.0,0.0,71,0.00,CLR,,0.00,WeatherDisplay:10.37,2013-02-26 04:33:00,
2013-02-25 23:38:00,35.4,27.3,30.11,NW,315,0.0,0.0,72,0.00,CLR,,0.00,WeatherDisplay:10.37,2013-02-26 04:38:00,
2013-02-25 23:43:00,35.2,27.1,30.11,NW,315,0.0,0.0,72,0.00,CLR,,0.00,WeatherDisplay:10.37,2013-02-26 04:43:00,
2013-02-25 23:48:00,35.1,26.9,30.11,NW,315,0.0,0.0,72,0.00,CLR,,0.00,WeatherDisplay:10.37,2013-02-26 04:48:00,
2013-02-25 23:53:00,35.1,26.9,30.11,WSW,248,0.0,0.0,72,0.00,CLR,,0.00,WeatherDisplay:10.37,2013-02-26 04:53:00,
2013-02-25 23:58:00,34.7,26.9,30.11,West,270,0.0,0.0,73,0.00,CLR,,0.00,WeatherDisplay:10.37,2013-02-26 04:58:00,